Time;durP1;ratioP1;P1;durP2;ratioP2;P2;SDS_P1;SDS_P2;PMS_P1;PMS_P2;Temp;Humidity;BMP_temperature;BMP_pressure;BME280_temperature;BME280_humidity;BME280_pressure;Samples;Min_cycle;Max_cycle;Signal;HPM_P1;HPM_P2
2022/09/02 00:01:24;;;;;;;4.38;2.40;;;6.70;99.90;;;;;;5029285;28;20025;-70
2022/09/02 00:03:51;;;;;;;6.60;3.28;;;6.70;99.90;;;;;;5036088;28;20036;-70
2022/09/02 00:06:17;;;;;;;12.35;2.97;;;6.70;99.90;;;;;;5036475;28;20032;-70
2022/09/02 00:08:43;;;;;;;8.13;3.33;;;6.70;99.90;;;;;;5036446;28;20029;-70
2022/09/02 00:11:15;;;;;;;6.07;3.03;;;6.70;99.90;;;;;;5036676;28;20393;-70
2022/09/02 00:13:41;;;;;;;4.15;2.90;;;6.70;99.90;;;;;;5035839;28;20025;-70
2022/09/02 00:16:09;;;;;;;4.40;2.72;;;6.80;99.90;;;;;;5036252;28;20040;-70
2022/09/02 00:18:35;;;;;;;9.82;3.10;;;6.70;99.90;;;;;;5036218;28;20022;-70
2022/09/02 00:21:01;;;;;;;6.93;3.20;;;6.70;99.90;;;;;;5035851;28;20048;-70
2022/09/02 00:23:26;;;;;;;4.47;2.88;;;6.70;99.90;;;;;;5036603;28;20041;-70
2022/09/02 00:25:52;;;;;;;5.00;2.95;;;6.70;99.90;;;;;;5036391;28;20021;-69
2022/09/02 00:28:18;;;;;;;3.35;2.63;;;6.70;99.90;;;;;;5036325;28;20025;-71
2022/09/02 00:30:44;;;;;;;3.92;3.05;;;6.70;99.90;;;;;;5035744;28;20507;-70
2022/09/02 00:33:11;;;;;;;5.70;2.55;;;6.70;99.90;;;;;;5036225;28;20029;-70
2022/09/02 00:35:36;;;;;;;5.18;2.97;;;6.70;99.90;;;;;;5035850;28;20531;-70
2022/09/02 00:38:03;;;;;;;3.97;2.65;;;6.70;99.90;;;;;;5036029;28;20100;-70
2022/09/02 00:40:30;;;;;;;5.38;3.20;;;6.70;99.90;;;;;;5035892;28;20079;-70
2022/09/02 00:42:56;;;;;;;5.47;2.90;;;6.70;99.90;;;;;;5035756;28;20025;-70
2022/09/02 00:45:22;;;;;;;4.38;2.70;;;6.60;99.90;;;;;;5035297;28;20413;-70
2022/09/02 00:47:51;;;;;;;4.40;2.95;;;6.60;99.90;;;;;;5036144;28;20470;-70
2022/09/02 00:50:23;;;;;;;3.28;2.72;;;6.60;99.90;;;;;;5035617;28;20394;-70
2022/09/02 00:52:52;;;;;;;5.22;2.90;;;6.60;99.90;;;;;;5035625;28;20031;-70
2022/09/02 00:55:29;;;;;;;4.05;2.88;;;6.60;99.90;;;;;;5035592;28;20366;-70
2022/09/02 00:57:59;;;;;;;4.50;2.53;;;6.60;99.90;;;;;;5035384;28;20424;-70
2022/09/02 01:00:32;;;;;;;4.95;3.30;;;6.60;99.90;;;;;;5035468;28;20076;-70
2022/09/02 01:03:02;;;;;;;3.97;2.67;;;6.70;99.90;;;;;;5035249;28;20047;-70
2022/09/02 01:05:32;;;;;;;4.13;2.97;;;6.60;99.90;;;;;;5035420;28;20034;-71
2022/09/02 01:07:58;;;;;;;4.18;2.75;;;6.70;99.90;;;;;;5035768;28;20029;-70
2022/09/02 01:10:33;;;;;;;4.07;2.65;;;6.70;99.90;;;;;;5034806;28;20029;-70
2022/09/02 01:13:06;;;;;;;3.13;2.50;;;6.70;99.90;;;;;;5035473;28;20032;-70
2022/09/02 01:15:36;;;;;;;5.97;3.35;;;6.70;99.90;;;;;;5035476;28;20036;-70
2022/09/02 01:18:03;;;;;;;3.95;3.17;;;6.70;99.90;;;;;;5035668;28;20112;-70
2022/09/02 01:20:29;;;;;;;4.15;3.03;;;6.70;99.90;;;;;;5034610;28;20017;-70
2022/09/02 01:22:57;;;;;;;4.10;2.72;;;6.70;99.90;;;;;;5035830;28;20369;-70
2022/09/02 01:25:26;;;;;;;4.90;3.88;;;6.70;99.90;;;;;;5034910;28;20025;-70
2022/09/02 01:27:52;;;;;;;3.85;2.53;;;6.70;99.90;;;;;;5035187;28;20029;-70
2022/09/02 01:30:23;;;;;;;3.63;2.65;;;6.70;99.90;;;;;;5035193;28;20401;-70
2022/09/02 01:32:49;;;;;;;5.55;2.88;;;6.70;99.90;;;;;;5034328;28;20030;-70
2022/09/02 01:35:16;;;;;;;3.13;2.83;;;6.70;99.90;;;;;;5034776;28;20563;-71
2022/09/02 01:37:43;;;;;;;3.08;2.63;;;6.70;99.90;;;;;;5034605;28;20026;-70
2022/09/02 01:40:12;;;;;;;4.03;3.55;;;6.70;99.90;;;;;;5035028;28;20018;-70
2022/09/02 01:42:39;;;;;;;4.65;3.28;;;6.70;99.90;;;;;;5034634;28;20025;-70
2022/09/02 01:45:07;;;;;;;3.78;3.35;;;6.80;99.90;;;;;;5034078;28;20025;-70
2022/09/02 01:47:34;;;;;;;5.13;3.25;;;6.80;99.90;;;;;;5034822;28;20032;-68
2022/09/02 01:50:00;;;;;;;5.20;3.25;;;6.80;99.90;;;;;;5034822;28;20029;-68
2022/09/02 01:52:27;;;;;;;4.22;2.72;;;6.80;99.90;;;;;;5034748;28;20029;-68
2022/09/02 01:54:54;;;;;;;4.70;3.05;;;6.80;99.90;;;;;;5034442;28;20025;-68
2022/09/02 01:57:23;;;;;;;2.90;2.63;;;6.80;99.90;;;;;;5034092;28;20020;-70
2022/09/02 01:59:49;;;;;;;2.95;2.60;;;6.70;99.90;;;;;;5034323;28;20029;-68
2022/09/02 02:02:15;;;;;;;3.65;3.25;;;6.70;99.90;;;;;;5071113;22;20020;-69
2022/09/02 02:04:41;;;;;;;3.95;2.95;;;6.70;99.90;;;;;;5026626;28;20052;-69
2022/09/02 02:07:06;;;;;;;5.18;2.80;;;6.70;99.90;;;;;;5034344;28;20029;-69
2022/09/02 02:09:32;;;;;;;7.75;3.35;;;6.70;99.90;;;;;;5034014;28;20450;-69
2022/09/02 02:11:58;;;;;;;7.55;3.28;;;6.70;99.90;;;;;;5034165;28;20033;-69
2022/09/02 02:14:23;;;;;;;3.38;2.92;;;6.70;99.90;;;;;;5033390;28;20469;-69
2022/09/02 02:16:49;;;;;;;2.70;2.50;;;6.70;99.90;;;;;;5033862;28;20022;-69
2022/09/02 02:19:15;;;;;;;3.63;2.92;;;6.70;99.90;;;;;;5034742;28;20049;-69
2022/09/02 02:21:40;;;;;;;3.63;2.95;;;6.70;99.90;;;;;;5033908;28;20027;-69
2022/09/02 02:24:07;;;;;;;3.72;2.60;;;6.70;99.90;;;;;;5033056;28;20025;-70
2022/09/02 02:26:33;;;;;;;3.83;3.17;;;6.70;99.90;;;;;;5033449;28;20105;-69
2022/09/02 02:28:59;;;;;;;7.25;2.42;;;6.70;99.90;;;;;;5033812;28;20104;-69
2022/09/02 02:31:24;;;;;;;4.07;2.72;;;6.60;99.90;;;;;;5034113;28;20430;-69
2022/09/02 02:33:50;;;;;;;4.60;2.60;;;6.60;99.90;;;;;;5033779;28;20025;-69
2022/09/02 02:36:17;;;;;;;3.88;2.80;;;6.60;99.90;;;;;;5029571;28;20022;-69
2022/09/02 02:38:45;;;;;;;3.67;2.95;;;6.50;99.90;;;;;;5013060;28;20532;-69
2022/09/02 02:41:12;;;;;;;2.78;2.20;;;6.40;99.90;;;;;;5013690;28;20144;-69
2022/09/02 02:43:38;;;;;;;6.10;2.58;;;6.30;99.90;;;;;;5028995;28;20018;-69
2022/09/02 02:46:05;;;;;;;2.83;2.38;;;6.30;99.90;;;;;;5013392;28;20067;-69
2022/09/02 02:48:32;;;;;;;6.75;2.65;;;6.30;99.90;;;;;;5012863;28;20033;-69
2022/09/02 02:50:57;;;;;;;3.30;2.85;;;6.30;99.90;;;;;;5014400;28;20022;-70
2022/09/02 02:53:23;;;;;;;3.53;3.00;;;6.20;99.90;;;;;;5033136;28;20397;-69
2022/09/02 02:55:49;;;;;;;4.70;2.70;;;6.30;99.90;;;;;;5033596;28;20481;-69
2022/09/02 02:58:15;;;;;;;5.50;2.67;;;6.30;99.90;;;;;;5033198;28;20021;-69
2022/09/02 03:00:40;;;;;;;6.32;3.15;;;6.20;99.90;;;;;;5033495;28;20028;-69
2022/09/02 03:03:08;;;;;;;3.03;2.38;;;6.20;99.90;;;;;;5033154;28;20033;-69
2022/09/02 03:05:36;;;;;;;2.90;2.45;;;6.20;99.90;;;;;;5031410;28;20512;-69
2022/09/02 03:08:04;;;;;;;3.35;2.78;;;6.20;99.90;;;;;;5013805;28;20029;-69
2022/09/02 03:10:32;;;;;;;5.00;3.22;;;6.20;99.90;;;;;;5013478;28;20105;-69
2022/09/02 03:12:58;;;;;;;4.50;2.83;;;6.20;99.90;;;;;;5013546;28;20030;-69
2022/09/02 03:15:25;;;;;;;5.22;3.63;;;6.20;99.90;;;;;;5013484;28;20026;-69
2022/09/02 03:17:51;;;;;;;5.13;3.15;;;6.20;99.90;;;;;;5022807;28;20047;-69
2022/09/02 03:20:18;;;;;;;6.15;3.10;;;6.20;99.90;;;;;;5032711;28;20032;-69
2022/09/02 03:22:46;;;;;;;3.47;3.00;;;6.20;99.90;;;;;;5033140;28;20484;-69
2022/09/02 03:25:14;;;;;;;2.88;2.22;;;6.20;99.90;;;;;;5033477;28;20099;-69
2022/09/02 03:27:41;;;;;;;2.45;2.17;;;6.20;99.90;;;;;;5032432;28;20021;-69
2022/09/02 03:30:09;;;;;;;4.65;2.33;;;6.10;99.90;;;;;;5033525;28;20473;-69
2022/09/02 03:32:35;;;;;;;3.20;2.90;;;6.10;99.90;;;;;;5033187;28;20032;-69
2022/09/02 03:35:07;;;;;;;4.43;2.55;;;6.10;99.90;;;;;;5033129;28;20425;-69
2022/09/02 03:37:33;;;;;;;4.70;2.70;;;6.10;99.90;;;;;;5032640;28;20101;-69
2022/09/02 03:40:03;;;;;;;3.00;2.13;;;6.10;99.90;;;;;;5033346;28;20037;-69
2022/09/02 03:42:28;;;;;;;5.13;2.70;;;6.10;99.90;;;;;;5032353;28;20068;-69
2022/09/02 03:44:54;;;;;;;4.07;2.83;;;6.10;99.90;;;;;;5032302;28;20030;-70
2022/09/02 03:47:20;;;;;;;3.33;2.80;;;6.10;99.90;;;;;;5032978;28;20061;-69
2022/09/02 03:49:46;;;;;;;3.58;2.50;;;6.00;99.90;;;;;;5032428;28;20075;-69
2022/09/02 03:52:12;;;;;;;6.53;2.42;;;6.00;99.90;;;;;;5032816;28;20030;-69
2022/09/02 03:54:37;;;;;;;4.00;2.55;;;6.00;99.90;;;;;;5032940;28;20091;-69
2022/09/02 03:57:03;;;;;;;4.93;3.22;;;6.00;99.90;;;;;;5033228;28;20527;-69
2022/09/02 03:59:29;;;;;;;4.32;2.58;;;6.00;99.90;;;;;;5032374;28;20040;-69
2022/09/02 04:01:54;;;;;;;3.15;2.53;;;5.90;99.90;;;;;;5035840;28;20017;-69
2022/09/02 04:04:20;;;;;;;2.80;2.42;;;5.90;99.90;;;;;;5036389;28;20068;-69
2022/09/02 04:06:46;;;;;;;3.45;2.15;;;5.90;99.90;;;;;;5035586;28;20025;-69
2022/09/02 04:09:11;;;;;;;3.22;2.13;;;5.90;99.90;;;;;;5036706;28;20029;-69
2022/09/02 04:11:41;;;;;;;4.57;2.45;;;5.90;99.90;;;;;;5036476;28;20022;-69
2022/09/02 04:14:08;;;;;;;4.97;2.60;;;5.90;99.90;;;;;;5035690;28;20533;-69
2022/09/02 04:16:34;;;;;;;2.47;2.28;;;6.00;99.90;;;;;;5036183;28;20523;-69
2022/09/02 04:19:00;;;;;;;4.32;2.30;;;6.00;99.90;;;;;;5036288;28;20422;-69
2022/09/02 04:21:26;;;;;;;2.42;2.03;;;6.00;99.90;;;;;;5036239;28;20025;-69
2022/09/02 04:23:52;;;;;;;2.83;2.15;;;6.00;99.90;;;;;;5035557;28;20045;-69
2022/09/02 04:26:20;;;;;;;3.35;2.30;;;6.00;99.90;;;;;;5036354;28;20040;-69
2022/09/02 04:28:47;;;;;;;3.75;2.05;;;6.10;99.90;;;;;;5036111;28;20060;-69
2022/09/02 04:31:15;;;;;;;4.97;2.38;;;6.10;99.90;;;;;;5036141;28;20026;-69
2022/09/02 04:33:41;;;;;;;2.42;2.22;;;6.10;99.90;;;;;;5036170;28;20026;-69
2022/09/02 04:36:09;;;;;;;5.32;2.78;;;6.10;99.90;;;;;;5035460;28;20079;-69
2022/09/02 04:38:35;;;;;;;3.03;2.65;;;6.20;99.90;;;;;;5036067;28;20026;-69
2022/09/02 04:41:09;;;;;;;4.18;3.10;;;6.10;99.90;;;;;;5036491;28;20414;-69
2022/09/02 04:43:35;;;;;;;;;;;6.10;99.90;;;;;;5037081;28;20545;-69
2022/09/02 04:46:07;;;;;;;3.60;2.67;;;6.10;99.90;;;;;;5036269;28;19939;-69
2022/09/02 04:48:33;;;;;;;4.70;2.50;;;6.20;99.90;;;;;;5035511;28;20093;-69
2022/09/02 04:51:07;;;;;;;3.38;2.60;;;6.10;99.90;;;;;;5035967;28;20477;-69
2022/09/02 04:53:34;;;;;;;5.82;1.98;;;6.10;99.90;;;;;;5035839;28;20037;-69
2022/09/02 04:56:01;;;;;;;3.90;2.17;;;6.10;99.90;;;;;;5035595;28;20446;-69
2022/09/02 04:58:27;;;;;;;4.95;2.85;;;6.10;99.90;;;;;;5035067;28;20053;-69
2022/09/02 05:00:53;;;;;;;3.28;2.63;;;6.20;99.90;;;;;;5035577;28;20099;-69
2022/09/02 05:03:18;;;;;;;3.67;2.55;;;6.20;99.90;;;;;;5035275;28;20088;-69
2022/09/02 05:05:44;;;;;;;3.25;2.38;;;6.20;99.90;;;;;;5034960;28;20048;-69
2022/09/02 05:08:11;;;;;;;4.13;2.90;;;6.20;99.90;;;;;;5034463;28;20030;-68
2022/09/02 05:10:39;;;;;;;3.08;2.70;;;6.30;99.90;;;;;;5035315;28;20028;-69
2022/09/02 05:13:05;;;;;;;4.15;3.00;;;6.30;99.90;;;;;;5034455;28;20096;-69
2022/09/02 05:15:32;;;;;;;3.63;2.63;;;6.40;99.90;;;;;;5035060;28;20109;-69
2022/09/02 05:17:57;;;;;;;3.15;2.75;;;6.50;99.90;;;;;;5034696;28;20102;-69
2022/09/02 05:20:23;;;;;;;2.92;2.33;;;6.50;99.90;;;;;;5035313;28;20104;-69
2022/09/02 05:22:49;;;;;;;10.52;3.97;;;6.60;99.90;;;;;;5035285;28;20132;-69
2022/09/02 05:25:15;;;;;;;3.20;2.47;;;6.70;99.90;;;;;;5035511;28;20033;-69
2022/09/02 05:27:40;;;;;;;4.25;3.08;;;6.70;99.90;;;;;;5035073;28;20036;-69
2022/09/02 05:30:06;;;;;;;3.50;2.50;;;6.80;99.90;;;;;;5035047;28;20022;-69
2022/09/02 05:32:33;;;;;;;4.00;3.10;;;6.90;99.90;;;;;;5034549;28;20045;-69
2022/09/02 05:34:59;;;;;;;3.92;2.60;;;7.00;99.90;;;;;;5034601;28;20554;-69
2022/09/02 05:37:24;;;;;;;6.05;2.92;;;7.00;99.90;;;;;;5035160;28;20029;-69
2022/09/02 05:39:51;;;;;;;5.95;3.30;;;7.10;99.90;;;;;;5034498;28;20053;-69
2022/09/02 05:42:19;;;;;;;4.18;3.05;;;7.30;99.90;;;;;;5032865;28;20030;-69
2022/09/02 05:44:45;;;;;;;5.25;2.85;;;7.40;99.90;;;;;;5034789;28;20151;-69
2022/09/02 05:47:11;;;;;;;3.55;2.70;;;7.50;99.90;;;;;;5035075;28;20056;-69
2022/09/02 05:49:37;;;;;;;2.50;1.98;;;7.70;99.90;;;;;;5034597;28;20532;-69
2022/09/02 05:52:03;;;;;;;4.70;2.30;;;7.80;99.90;;;;;;5034266;28;20057;-69
2022/09/02 05:54:35;;;;;;;11.52;3.55;;;7.90;99.90;;;;;;5034625;28;20030;-69
2022/09/02 05:57:07;;;;;;;5.13;3.60;;;8.10;99.90;;;;;;5034126;28;20104;-69
2022/09/02 05:59:37;;;;;;;4.93;3.08;;;8.30;99.90;;;;;;5034651;28;20036;-69
2022/09/02 06:02:03;;;;;;;8.27;4.45;;;8.50;99.90;;;;;;5034208;28;20477;-69
2022/09/02 06:04:28;;;;;;;10.82;5.15;;;8.80;99.90;;;;;;5035184;28;20052;-69
2022/09/02 06:06:54;;;;;;;5.63;4.32;;;9.00;99.90;;;;;;5034283;28;20025;-69
2022/09/02 06:09:21;;;;;;;9.38;5.65;;;9.20;99.90;;;;;;5034238;28;20025;-69
2022/09/02 06:11:48;;;;;;;12.55;5.85;;;9.40;99.90;;;;;;5033557;28;20091;-70
2022/09/02 06:14:16;;;;;;;6.13;4.78;;;9.70;99.90;;;;;;5033728;28;20430;-69
2022/09/02 06:16:42;;;;;;;13.65;5.55;;;10.00;99.90;;;;;;5034271;28;20104;-69
2022/09/02 06:19:08;;;;;;;8.27;7.18;;;10.20;99.90;;;;;;5033685;28;20042;-69
2022/09/02 06:21:35;;;;;;;9.90;7.85;;;10.40;99.90;;;;;;5033933;28;20132;-69
2022/09/02 06:24:05;;;;;;;9.63;6.97;;;10.60;99.90;;;;;;5033693;28;20584;-69
2022/09/02 06:26:30;;;;;;;11.80;7.63;;;10.80;99.90;;;;;;5033932;28;20036;-69
2022/09/02 06:28:56;;;;;;;11.65;10.32;;;11.10;99.90;;;;;;5033842;28;20021;-69
2022/09/02 06:31:22;;;;;;;9.07;7.10;;;11.30;99.90;;;;;;5033021;28;20043;-70
2022/09/02 06:33:53;;;;;;;13.73;7.50;;;11.40;99.90;;;;;;5034189;28;20079;-69
2022/09/02 06:36:20;;;;;;;7.25;5.75;;;11.70;99.90;;;;;;5033856;28;20242;-69
2022/09/02 06:38:48;;;;;;;6.28;5.63;;;12.00;99.90;;;;;;5034341;28;20092;-70
2022/09/02 06:41:16;;;;;;;10.38;9.18;;;12.10;99.90;;;;;;5033192;28;20481;-70
2022/09/02 06:43:42;;;;;;;6.97;5.78;;;12.30;99.90;;;;;;5033480;28;20453;-69
2022/09/02 06:46:13;;;;;;;7.47;4.82;;;12.50;99.90;;;;;;5033534;28;20049;-69
2022/09/02 06:48:38;;;;;;;4.32;3.22;;;12.70;99.90;;;;;;5033788;28;20025;-69
2022/09/02 06:51:04;;;;;;;9.10;3.92;;;13.00;99.90;;;;;;5033212;28;20033;-70
2022/09/02 06:53:30;;;;;;;11.52;3.97;;;13.20;99.90;;;;;;5034046;28;20025;-69
2022/09/02 06:55:55;;;;;;;5.93;3.13;;;13.50;99.90;;;;;;5033655;28;20057;-69
2022/09/02 06:58:21;;;;;;;7.65;2.92;;;13.70;99.90;;;;;;5033778;28;20399;-69
2022/09/02 07:00:46;;;;;;;6.85;2.40;;;13.90;99.90;;;;;;5033497;28;20373;-69
2022/09/02 07:06:08;;;;;;;5.22;2.38;;;14.40;99.90;;;;;;5034014;28;20049;-69
2022/09/02 07:08:38;;;;;;;3.50;1.90;;;14.60;99.90;;;;;;5034326;28;20474;-69
2022/09/02 07:11:08;;;;;;;6.65;2.10;;;14.90;99.90;;;;;;5033828;28;20039;-69
2022/09/02 07:13:34;;;;;;;3.00;1.77;;;15.10;99.90;;;;;;5033378;28;20032;-69
2022/09/02 07:16:00;;;;;;;8.13;2.28;;;15.30;99.90;;;;;;5033302;28;20026;-69
2022/09/02 07:18:27;;;;;;;2.10;1.23;;;15.50;99.90;;;;;;5032928;28;20021;-69
2022/09/02 07:20:53;;;;;;;1.65;1.52;;;15.70;99.90;;;;;;5033347;28;20103;-69
2022/09/02 07:23:19;;;;;;;6.43;1.83;;;15.90;99.90;;;;;;5033203;28;20036;-69
2022/09/02 07:25:45;;;;;;;1.35;1.10;;;16.20;99.90;;;;;;5033453;28;20018;-69
2022/09/02 07:28:11;;;;;;;2.05;1.15;;;16.40;99.90;;;;;;5033316;28;20370;-69
2022/09/02 07:30:40;;;;;;;1.73;1.10;;;16.60;99.90;;;;;;5033114;28;20478;-69
2022/09/02 07:33:06;;;;;;;3.15;1.40;;;16.90;99.90;;;;;;5032698;28;20104;-68
2022/09/02 07:35:32;;;;;;;3.20;1.10;;;17.10;99.90;;;;;;5034776;28;20452;-69
2022/09/02 07:37:58;;;;;;;2.65;1.10;;;17.40;99.90;;;;;;5037199;28;20028;-69
2022/09/02 07:40:24;;;;;;;1.30;1.20;;;17.60;99.90;;;;;;5037094;28;20021;-69
2022/09/02 07:42:50;;;;;;;2.35;1.08;;;17.80;99.90;;;;;;5037149;28;20065;-69
2022/09/02 07:45:16;;;;;;;1.00;0.90;;;17.90;99.90;;;;;;5036507;28;20052;-69
2022/09/02 07:47:41;;;;;;;4.57;1.08;;;18.10;99.90;;;;;;5036917;28;20029;-69
2022/09/02 07:50:07;;;;;;;4.43;1.15;;;18.20;99.90;;;;;;5035475;28;20032;-69
2022/09/02 07:52:33;;;;;;;1.55;1.00;;;18.40;99.90;;;;;;5036684;28;20029;-69
2022/09/02 07:54:59;;;;;;;2.47;1.02;;;18.60;99.90;;;;;;5036812;28;20038;-69
2022/09/02 07:57:24;;;;;;;2.65;0.95;;;18.70;99.90;;;;;;5036705;28;20018;-69
2022/09/02 07:59:50;;;;;;;1.00;0.90;;;18.90;99.90;;;;;;5036118;28;20021;-68
2022/09/02 08:02:17;;;;;;;2.53;0.80;;;19.00;99.90;;;;;;5036686;28;20022;-68
2022/09/02 08:04:43;;;;;;;2.70;1.00;;;19.20;99.90;;;;;;5043328;22;20562;-67
2022/09/02 08:07:09;;;;;;;0.88;0.85;;;19.40;99.90;;;;;;5036285;28;20029;-67
2022/09/02 08:09:35;;;;;;;3.40;0.90;;;19.60;99.90;;;;;;5036517;28;20026;-67
2022/09/02 08:12:01;;;;;;;0.63;0.60;;;19.60;99.90;;;;;;5018150;28;20425;-68
2022/09/02 08:14:28;;;;;;;3.38;0.93;;;19.60;99.90;;;;;;5016492;28;20064;-68
2022/09/02 08:16:55;;;;;;;3.15;1.23;;;19.70;99.90;;;;;;5016885;28;20133;-67
2022/09/02 08:19:22;;;;;;;1.88;0.80;;;19.80;99.90;;;;;;5016561;28;20100;-67
2022/09/02 08:21:48;;;;;;;1.98;0.75;;;19.90;99.90;;;;;;5016054;28;20024;-67
2022/09/02 08:24:14;;;;;;;6.22;0.98;;;20.00;99.90;;;;;;5016435;28;20375;-68
2022/09/02 08:26:39;;;;;;;1.75;0.80;;;20.20;99.90;;;;;;5016355;28;20022;-67
2022/09/02 08:29:07;;;;;;;2.65;0.75;;;20.40;99.90;;;;;;5015639;28;20026;-67
2022/09/02 08:31:35;;;;;;;1.67;0.55;;;20.50;99.90;;;;;;5016328;28;20076;-67
2022/09/02 08:34:00;;;;;;;2.13;0.93;;;20.80;99.90;;;;;;5016240;28;20070;-67
2022/09/02 08:36:26;;;;;;;9.95;0.75;;;20.90;99.90;;;;;;5015789;28;20030;-67
2022/09/02 08:38:52;;;;;;;1.13;0.90;;;20.90;99.90;;;;;;5016814;28;20030;-67
2022/09/02 08:41:46;;;;;;;0.93;0.80;;;21.10;99.90;;;;;;5016222;28;20026;-67
2022/09/02 08:44:16;;;;;;;;;;;21.20;99.90;;;;;;5015984;28;20046;-67
2022/09/02 08:46:42;;;;;;;4.10;0.90;;;21.10;99.90;;;;;;5014771;28;19951;-67
2022/09/02 08:49:15;;;;;;;4.15;0.68;;;21.40;99.90;;;;;;5016000;28;20108;-67
2022/09/02 08:51:52;;;;;;;3.00;0.85;;;21.40;99.90;;;;;;5015694;28;20040;-67
2022/09/02 08:54:17;;;;;;;7.72;0.65;;;21.60;99.90;;;;;;5016077;28;20022;-67
2022/09/02 08:56:43;;;;;;;11.27;0.77;;;21.80;99.90;;;;;;5015885;28;20492;-67
2022/09/02 08:59:09;;;;;;;1.90;0.80;;;22.00;99.90;;;;;;5015837;28;20025;-67
2022/09/02 09:02:04;;;;;;;2.95;0.63;;;22.10;99.90;;;;;;5015860;28;20025;-67
2022/09/02 09:05:07;;;;;;;5.53;0.93;;;22.20;99.90;;;;;;5015080;28;20041;-67
2022/09/02 09:07:56;;;;;;;1.92;0.70;;;22.20;99.90;;;;;;5016080;28;20028;-67
2022/09/02 09:10:43;;;;;;;1.30;0.65;;;22.20;99.90;;;;;;5015947;28;20434;-67
2022/09/02 09:13:49;;;;;;;3.70;1.00;;;22.30;99.90;;;;;;5015328;28;20460;-67
2022/09/02 09:16:38;;;;;;;1.23;0.90;;;22.40;99.90;;;;;;5015404;28;20362;-67
2022/09/02 09:19:15;;;;;;;1.30;0.75;;;22.70;99.90;;;;;;5015456;28;20018;-67
2022/09/02 09:21:43;;;;;;;1.55;0.80;;;23.00;99.90;;;;;;5015661;28;20029;-67
2022/09/02 09:24:18;;;;;;;1.13;0.68;;;23.00;99.90;;;;;;5015532;28;20025;-67
2022/09/02 09:26:46;;;;;;;9.15;0.82;;;23.00;99.90;;;;;;5014987;28;20409;-67
2022/09/02 09:29:11;;;;;;;3.67;0.95;;;23.00;99.90;;;;;;5015561;28;20022;-67
2022/09/02 09:31:38;;;;;;;4.97;0.90;;;22.90;99.90;;;;;;5015304;28;20022;-67
2022/09/02 09:34:10;;;;;;;0.50;0.40;;;23.20;99.90;;;;;;5015382;28;20124;-67
2022/09/02 09:36:42;;;;;;;1.67;0.93;;;23.40;99.90;;;;;;5015182;28;20458;-67
2022/09/02 09:39:28;;;;;;;0.70;0.60;;;23.60;99.90;;;;;;5014993;28;20030;-67
2022/09/02 09:42:08;;;;;;;3.30;0.82;;;23.80;99.90;;;;;;5015242;28;20819;-67
2022/09/02 09:44:46;;;;;;;4.85;0.80;;;23.90;99.90;;;;;;5014919;28;20026;-67
2022/09/02 09:47:24;;;;;;;2.03;0.90;;;23.80;99.90;;;;;;5015190;28;20030;-67
2022/09/02 09:50:14;;;;;;;4.20;0.77;;;24.00;99.90;;;;;;5014639;28;20385;-67
2022/09/02 09:52:40;;;;;;;5.15;0.85;;;24.10;99.90;;;;;;5015099;28;20032;-67
2022/09/02 09:55:09;;;;;;;1.20;0.80;;;24.10;99.90;;;;;;5014995;28;20029;-67
2022/09/02 09:57:34;;;;;;;3.40;0.60;;;24.20;99.90;;;;;;5013810;28;20022;-67
2022/09/02 10:00:02;;;;;;;8.23;0.93;;;24.30;98.80;;;;;;5013466;28;20033;-67
2022/09/02 10:02:28;;;;;;;3.72;0.90;;;24.30;98.70;;;;;;5014937;28;20029;-67
2022/09/02 10:05:25;;;;;;;5.32;1.00;;;24.50;98.70;;;;;;5014489;28;20058;-67
2022/09/02 10:08:01;;;;;;;1.55;0.80;;;24.70;99.30;;;;;;5014112;28;20029;-68
2022/09/02 10:10:29;;;;;;;4.70;0.88;;;24.90;99.30;;;;;;5014899;28;20109;-68
2022/09/02 10:13:00;;;;;;;1.98;0.85;;;25.10;98.20;;;;;;5014480;28;20367;-68
2022/09/02 10:15:32;;;;;;;0.47;0.47;;;25.00;96.00;;;;;;5014716;28;20073;-68
2022/09/02 10:18:13;;;;;;;0.47;0.40;;;25.00;96.60;;;;;;5014904;28;20054;-68
2022/09/02 10:21:12;;;;;;;4.53;0.57;;;25.10;96.00;;;;;;5013833;28;20052;-68
2022/09/02 10:23:50;;;;;;;1.45;0.63;;;24.90;96.10;;;;;;5014840;28;20050;-68
2022/09/02 10:26:35;;;;;;;1.65;1.00;;;25.10;96.30;;;;;;5014249;28;20033;-68
2022/09/02 10:29:26;;;;;;;4.97;0.70;;;25.10;95.50;;;;;;5014875;28;20022;-68
2022/09/02 10:32:10;;;;;;;1.35;0.50;;;25.30;96.00;;;;;;5013971;28;20029;-68
2022/09/02 10:35:01;;;;;;;4.75;0.82;;;25.40;95.10;;;;;;5014393;28;20576;-68
2022/09/02 10:37:57;;;;;;;3.50;0.85;;;25.40;93.60;;;;;;5011225;28;20493;-68
2022/09/02 10:40:33;;;;;;;1.55;0.88;;;25.40;93.60;;;;;;5008858;28;20129;-67
2022/09/02 10:43:17;;;;;;;3.95;0.80;;;25.60;93.50;;;;;;5014288;28;20022;-67
2022/09/02 10:45:42;;;;;;;;;;;25.60;92.60;;;;;;5014707;28;20081;-69
2022/09/02 10:48:18;;;;;;;3.58;0.57;;;25.80;94.00;;;;;;5013996;28;20373;-67
2022/09/02 10:51:05;;;;;;;2.13;0.80;;;25.80;92.90;;;;;;5013597;28;20030;-68
2022/09/02 10:54:14;;;;;;;2.20;1.02;;;26.10;92.80;;;;;;5014017;28;20026;-68
2022/09/02 10:57:21;;;;;;;3.58;0.60;;;26.30;93.20;;;;;;5013964;28;20113;-68
2022/09/02 10:59:57;;;;;;;1.50;0.70;;;26.30;92.10;;;;;;4953476;29;20031;-67
2022/09/02 11:02:27;;;;;;;4.63;0.63;;;26.30;91.10;;;;;;4952929;29;20034;-67
2022/09/02 11:05:10;;;;;;;3.83;0.88;;;26.40;91.00;;;;;;4987333;28;20532;-68
2022/09/02 11:07:47;;;;;;;1.80;0.80;;;26.50;91.60;;;;;;5013769;28;20038;-68
2022/09/02 11:10:21;;;;;;;1.10;1.00;;;26.40;90.10;;;;;;5012903;28;20113;-68
2022/09/02 11:12:59;;;;;;;6.22;1.10;;;26.40;90.50;;;;;;5013301;28;20061;-67
2022/09/02 11:15:38;;;;;;;6.55;0.80;;;26.40;89.90;;;;;;5013797;28;20026;-67
2022/09/02 11:18:12;;;;;;;11.10;1.00;;;26.40;90.00;;;;;;5009244;28;20034;-67
2022/09/02 11:21:02;;;;;;;4.32;0.65;;;26.50;90.00;;;;;;5013810;28;20029;-67
2022/09/02 11:23:33;;;;;;;6.68;1.00;;;26.70;90.10;;;;;;4993688;28;20015;-67
2022/09/02 11:26:03;;;;;;;9.23;0.82;;;26.80;90.00;;;;;;4993968;28;20084;-67
2022/09/02 11:28:54;;;;;;;5.72;0.82;;;26.70;86.60;;;;;;4993959;28;20030;-68
2022/09/02 11:31:37;;;;;;;0.68;0.60;;;26.60;86.30;;;;;;4993301;28;20031;-68
2022/09/02 11:34:35;;;;;;;0.82;0.70;;;26.50;84.00;;;;;;4993962;28;20466;-68
2022/09/02 11:37:04;;;;;;;6.13;0.85;;;26.30;86.20;;;;;;4993817;28;20031;-68
2022/09/02 11:39:39;;;;;;;7.78;1.00;;;26.10;84.50;;;;;;4993744;28;20026;-68
2022/09/02 11:42:24;;;;;;;0.70;0.70;;;26.30;87.30;;;;;;4994031;28;20068;-68
2022/09/02 11:45:12;;;;;;;8.90;0.90;;;26.60;84.50;;;;;;4993362;28;20031;-67
2022/09/02 11:47:50;;;;;;;6.53;1.00;;;26.70;82.40;;;;;;4994054;28;20053;-68
2022/09/02 11:50:41;;;;;;;5.82;1.33;;;26.90;86.30;;;;;;4993759;28;20478;-68
2022/09/02 11:53:28;;;;;;;5.65;0.68;;;27.10;85.20;;;;;;4993728;28;20049;-67
2022/09/02 11:56:23;;;;;;;4.25;0.90;;;27.60;82.30;;;;;;4994136;28;20026;-68
2022/09/02 11:58:51;;;;;;;1.23;0.60;;;28.00;82.50;;;;;;4993951;28;20022;-68
2022/09/02 12:01:36;;;;;;;1.00;0.63;;;28.10;79.90;;;;;;4993267;28;20069;-68
2022/09/02 12:04:10;;;;;;;2.47;0.85;;;28.70;81.90;;;;;;5009104;28;20037;-68
2022/09/02 12:06:37;;;;;;;0.77;0.68;;;28.90;80.40;;;;;;5013717;28;20579;-68
2022/09/02 12:09:05;;;;;;;4.55;0.40;;;29.20;79.30;;;;;;5011516;28;20040;-67
2022/09/02 12:11:42;;;;;;;3.67;0.65;;;29.10;76.80;;;;;;4993621;28;20113;-68
2022/09/02 12:14:32;;;;;;;1.35;0.60;;;29.10;78.10;;;;;;5001732;28;20080;-67
2022/09/02 12:17:02;;;;;;;1.35;0.55;;;29.10;75.90;;;;;;5013304;28;20081;-68
2022/09/02 12:19:39;;;;;;;6.28;0.68;;;29.30;75.70;;;;;;5013091;28;20021;-67
2022/09/02 12:22:17;;;;;;;3.70;0.70;;;29.50;74.10;;;;;;5015391;28;20029;-67
2022/09/02 12:25:08;;;;;;;4.97;0.60;;;29.70;74.20;;;;;;5016232;28;20040;-68
2022/09/02 12:27:37;;;;;;;4.32;0.77;;;29.70;72.10;;;;;;4976351;28;20060;-68
2022/09/02 12:30:10;;;;;;;1.25;0.47;;;29.80;72.70;;;;;;4996815;28;20026;-68
2022/09/02 12:32:44;;;;;;;;;;;29.90;71.30;;;;;;5013284;28;20026;-68
2022/09/02 12:35:13;;;;;;;19.42;0.88;;;30.00;71.00;;;;;;5016281;28;20313;-68
2022/09/02 12:38:24;;;;;;;1.20;0.60;;;29.50;68.90;;;;;;5016262;28;20100;-68
2022/09/02 12:40:59;;;;;;;3.72;0.63;;;29.90;71.60;;;;;;4975569;28;20033;-68
2022/09/02 12:43:34;;;;;;;1.90;0.70;;;30.10;69.90;;;;;;4974540;28;20033;-67
2022/09/02 12:46:12;;;;;;;0.63;0.55;;;30.10;70.20;;;;;;5001771;28;20030;-68
2022/09/02 12:48:47;;;;;;;4.28;0.40;;;30.60;68.90;;;;;;5016415;28;20030;-68
2022/09/02 12:51:55;;;;;;;3.70;0.80;;;30.70;68.70;;;;;;5016320;28;20029;-68
2022/09/02 12:54:47;;;;;;;1.85;0.73;;;30.60;66.20;;;;;;5016594;28;20022;-68
2022/09/02 12:57:15;;;;;;;0.93;0.50;;;30.10;66.40;;;;;;5016237;28;20038;-68
2022/09/02 12:59:42;;;;;;;0.30;0.30;;;30.10;66.50;;;;;;5015765;28;20489;-68
2022/09/02 13:02:14;;;;;;;1.85;0.70;;;30.20;65.80;;;;;;5016296;28;20026;-68
2022/09/02 13:04:57;;;;;;;10.68;0.80;;;30.50;68.00;;;;;;5015571;28;20033;-68
2022/09/02 13:08:20;;;;;;;1.02;0.40;;;30.70;65.50;;;;;;5015381;28;20018;-68
2022/09/02 13:11:13;;;;;;;6.25;0.75;;;30.30;64.70;;;;;;4955152;29;20026;-68
2022/09/02 13:13:46;;;;;;;1.02;0.57;;;30.30;65.00;;;;;;4955190;28;20027;-68
2022/09/02 13:16:20;;;;;;;0.95;0.50;;;30.50;64.50;;;;;;4997399;28;20379;-68